createdAt,value
2018-09-11T00:02:10.047Z,100505.64
2018-09-11T00:04:37.583Z,100511.69
2018-09-11T00:07:05.090Z,100508.13
2018-09-11T00:09:32.932Z,100510.48
2018-09-11T00:12:00.489Z,100506.09
2018-09-11T00:14:28.049Z,100505.06
2018-09-11T00:16:55.586Z,100499.48
2018-09-11T00:22:02.162Z,100516.55
2018-09-11T00:24:30.226Z,100510.97
2018-09-11T00:26:57.788Z,100507.75
2018-09-11T00:29:25.348Z,100503.65
2018-09-11T00:31:53.935Z,100499.92
2018-09-11T00:34:22.035Z,100500.55
2018-09-11T00:36:50.373Z,100497.47
2018-09-11T00:39:17.877Z,100505.81
2018-09-11T00:41:45.685Z,100504.09
2018-09-11T00:44:13.244Z,100497.29
2018-09-11T00:46:40.761Z,100496.73
2018-09-11T00:49:09.306Z,100496.83
2018-09-11T00:51:37.249Z,100490.03
2018-09-11T00:54:06.290Z,100484.61
2018-09-11T00:56:33.862Z,100482.20
2018-09-11T00:59:01.414Z,100472.75
2018-09-11T01:01:29.340Z,100479.88
2018-09-11T01:03:57.692Z,100483.69
2018-09-11T01:06:25.185Z,100474.94
2018-09-11T01:08:53.331Z,100476.41
2018-09-11T01:11:21.188Z,100464.45
2018-09-11T01:13:49.271Z,100465.31
2018-09-11T01:16:16.736Z,100471.52
2018-09-11T01:18:45.369Z,100473.25
2018-09-11T01:21:13.183Z,100466.88
2018-09-11T01:23:41.337Z,100463.19
2018-09-11T01:26:08.823Z,100467.56
2018-09-11T01:28:36.634Z,100466.09
2018-09-11T01:31:04.109Z,100471.64
2018-09-11T01:33:31.561Z,100473.09
2018-09-11T01:35:59.115Z,100454.14
2018-09-11T01:38:26.970Z,100460.42
2018-09-11T01:40:54.434Z,100459.11
2018-09-11T01:43:21.931Z,100458.32
2018-09-11T01:45:49.375Z,100458.39
2018-09-11T01:48:18.280Z,100454.22
2018-09-11T01:50:45.764Z,100449.88
2018-09-11T01:53:13.210Z,100449.23
2018-09-11T01:55:41.020Z,100439.16
2018-09-11T01:58:09.331Z,100433.64
2018-09-11T02:00:36.811Z,100432.44
2018-09-11T02:03:04.293Z,100434.16
2018-09-11T02:05:32.150Z,100437.67
2018-09-11T02:07:59.600Z,100442.23
2018-09-11T02:10:27.091Z,100446.26
2018-09-11T02:12:55.196Z,100452.27
2018-09-11T02:15:23.162Z,100461.53
2018-09-11T02:17:50.689Z,100462.02
2018-09-11T02:20:18.766Z,100463.02
2018-09-11T02:22:46.252Z,100451.91
2018-09-11T02:25:15.171Z,100439.98
2018-09-11T02:27:42.699Z,100442.81
2018-09-11T02:30:10.472Z,100443.47
2018-09-11T02:32:38.213Z,100443.05
2018-09-11T02:35:07.009Z,100441.16
2018-09-11T02:37:34.492Z,100443.94
2018-09-11T02:40:03.464Z,100441.52
2018-09-11T02:42:30.951Z,100443.31
2018-09-11T02:44:58.471Z,100442.38
2018-09-11T02:47:25.993Z,100440.82
2018-09-11T02:49:53.932Z,100443.30
2018-09-11T02:52:21.470Z,100447.77
2018-09-11T02:54:49.053Z,100448.91
2018-09-11T02:57:17.859Z,100462.98
2018-09-11T02:59:45.403Z,100473.05
2018-09-11T03:02:12.965Z,100462.43
2018-09-11T03:04:41.615Z,100469.31
2018-09-11T03:07:09.149Z,100476.38
2018-09-11T03:09:36.670Z,100471.01
2018-09-11T03:12:04.535Z,100477.37
2018-09-11T03:14:32.096Z,100477.21
2018-09-11T03:17:00.223Z,100470.66
2018-09-11T03:19:28.257Z,100463.42
2018-09-11T03:21:55.873Z,100469.94
2018-09-11T03:24:23.401Z,100464.72
2018-09-11T03:26:50.915Z,100464.21
2018-09-11T03:29:18.795Z,100462.52
2018-09-11T03:31:47.274Z,100465.20
2018-09-11T03:34:17.531Z,100474.40
2018-09-11T03:36:45.046Z,100469.81
2018-09-11T03:39:13.967Z,100471.93
2018-09-11T03:41:41.491Z,100470.75
2018-09-11T03:44:09.075Z,100471.37
2018-09-11T03:46:36.590Z,100468.84
2018-09-11T03:49:04.675Z,100477.47
2018-09-11T03:51:32.271Z,100474.91
2018-09-11T03:54:00.801Z,100479.77
2018-09-11T03:56:28.717Z,100479.30
2018-09-11T03:58:56.249Z,100475.48
2018-09-11T04:01:23.798Z,100475.18
2018-09-11T04:03:51.339Z,100473.36
2018-09-11T04:06:18.864Z,100476.39
2018-09-11T04:08:46.383Z,100469.89
2018-09-11T04:11:14.334Z,100471.79
2018-09-11T04:13:41.910Z,100469.88
2018-09-11T04:16:09.465Z,100464.06
2018-09-11T04:18:36.976Z,100464.11
2018-09-11T04:21:06.733Z,100465.53
2018-09-11T04:23:35.322Z,100457.51
2018-09-11T04:26:03.700Z,100461.41
2018-09-11T04:28:31.218Z,100462.34
2018-09-11T04:30:59.059Z,100466.28
2018-09-11T04:33:26.665Z,100465.22
2018-09-11T04:35:54.370Z,100469.15
2018-09-11T04:38:22.449Z,100464.33
2018-09-11T04:40:50.696Z,100467.57
2018-09-11T04:43:19.883Z,100469.81
2018-09-11T04:45:47.783Z,100470.02
2018-09-11T04:48:15.321Z,100471.91
2018-09-11T04:50:42.921Z,100459.50
2018-09-11T04:53:10.924Z,100467.64
2018-09-11T04:55:38.718Z,100457.56
2018-09-11T04:58:06.529Z,100458.77
2018-09-11T05:00:34.434Z,100463.16
2018-09-11T05:03:02.326Z,100465.19
2018-09-11T05:05:29.892Z,100469.09
2018-09-11T05:07:58.004Z,100460.36
2018-09-11T05:10:25.526Z,100455.32
2018-09-11T05:12:53.066Z,100455.01
2018-09-11T05:15:21.840Z,100450.00
2018-09-11T05:17:49.465Z,100450.34
2018-09-11T05:20:18.073Z,100450.70
2018-09-11T05:22:46.140Z,100448.34
2018-09-11T05:25:13.697Z,100443.31
2018-09-11T05:27:41.526Z,100446.86
2018-09-11T05:30:10.214Z,100450.72
2018-09-11T05:32:38.617Z,100444.86
2018-09-11T05:35:07.281Z,100443.99
2018-09-11T05:37:35.399Z,100443.99
2018-09-11T05:40:02.909Z,100440.96
2018-09-11T05:42:30.509Z,100447.69
2018-09-11T05:45:00.381Z,100447.69
2018-09-11T05:47:28.964Z,100449.55
2018-09-11T05:49:56.506Z,100454.41
2018-09-11T05:52:24.465Z,100453.27
2018-09-11T05:54:52.161Z,100457.52
2018-09-11T05:57:20.588Z,100457.00
2018-09-11T05:59:48.565Z,100456.52
2018-09-11T06:02:16.734Z,100458.72
2018-09-11T06:04:44.250Z,100459.41
2018-09-11T06:07:12.282Z,100460.95
2018-09-11T06:09:39.994Z,100461.64
2018-09-11T06:12:07.529Z,100463.33
2018-09-11T06:14:35.359Z,100459.16
2018-09-11T06:17:04.096Z,100454.11
2018-09-11T06:19:31.652Z,100462.88
2018-09-11T06:22:00.446Z,100454.52
2018-09-11T06:24:28.563Z,100454.41
2018-09-11T06:26:57.015Z,100458.56
2018-09-11T06:29:27.108Z,100456.29
2018-09-11T06:31:54.670Z,100463.09
2018-09-11T06:34:22.258Z,100459.48
2018-09-11T06:36:50.187Z,100455.34
2018-09-11T06:39:18.732Z,100451.13
2018-09-11T06:41:47.081Z,100447.43
2018-09-11T06:44:15.031Z,100436.51
2018-09-11T06:46:42.600Z,100447.97
2018-09-11T06:49:11.293Z,100448.84
2018-09-11T06:51:39.394Z,100445.00
2018-09-11T06:54:06.981Z,100451.93
2018-09-11T06:56:35.518Z,100460.87
2018-09-11T06:59:03.596Z,100458.47
2018-09-11T07:01:32.075Z,100465.38
2018-09-11T07:03:59.605Z,100463.66
2018-09-11T07:06:27.109Z,100469.91
2018-09-11T07:08:55.638Z,100465.41
2018-09-11T07:11:23.549Z,100464.13
2018-09-11T07:13:51.088Z,100466.69
2018-09-11T07:16:18.739Z,100476.38
2018-09-11T07:18:46.699Z,100474.12
2018-09-11T07:21:14.274Z,100477.75
2018-09-11T07:23:41.796Z,100474.80
2018-09-11T07:26:09.744Z,100468.63
2018-09-11T07:28:37.339Z,100471.72
2018-09-11T07:31:04.950Z,100471.42
2018-09-11T07:33:32.977Z,100474.84
2018-09-11T07:36:00.497Z,100488.37
2018-09-11T07:41:33.210Z,100490.92
2018-09-11T07:44:01.325Z,100490.81
2018-09-11T07:46:29.202Z,100486.48
2018-09-11T07:48:56.723Z,100485.16
2018-09-11T07:51:24.301Z,100484.70
2018-09-11T07:53:52.194Z,100484.55
2018-09-11T07:56:20.851Z,100483.22
2018-09-11T07:58:48.386Z,100485.59
2018-09-11T08:01:17.111Z,100475.97
2018-09-11T08:03:45.267Z,100489.00
2018-09-11T08:06:14.319Z,100483.95
2018-09-11T08:08:43.810Z,100485.50
2018-09-11T08:11:11.390Z,100483.14
2018-09-11T08:13:41.225Z,100486.38
2018-09-11T08:16:09.045Z,100488.05
2018-09-11T08:18:36.621Z,100485.02
2018-09-11T08:21:07.116Z,100486.36
2018-09-11T08:23:35.545Z,100476.93
2018-09-11T08:26:03.106Z,100488.95
2018-09-11T08:28:30.630Z,100479.48
2018-09-11T08:30:58.494Z,100485.89
2018-09-11T08:33:26.078Z,100487.73
2018-09-11T08:35:53.863Z,100467.78
2018-09-11T08:38:22.646Z,100490.08
2018-09-11T08:40:50.325Z,100490.39
2018-09-11T08:43:17.850Z,100483.97
2018-09-11T08:45:45.846Z,100475.16
2018-09-11T08:48:14.331Z,100480.05
2018-09-11T08:50:41.828Z,100480.88
2018-09-11T08:53:10.420Z,100472.69
2018-09-11T08:55:37.979Z,100467.56
2018-09-11T08:58:06.318Z,100455.66
2018-09-11T09:00:34.156Z,100460.86
2018-09-11T09:03:01.763Z,100473.48
2018-09-11T09:05:29.847Z,100461.45
2018-09-11T09:07:58.633Z,100460.05
2018-09-11T09:10:26.256Z,100466.59
2018-09-11T09:12:54.460Z,100463.33
2018-09-11T09:15:22.354Z,100460.92
2018-09-11T09:17:53.683Z,100461.52
2018-09-11T09:20:22.007Z,100461.91
2018-09-11T09:22:50.781Z,100459.23
2018-09-11T09:25:18.372Z,100450.20
2018-09-11T09:27:45.900Z,100443.60
2018-09-11T09:30:17.536Z,100477.42
2018-09-11T09:32:46.578Z,100455.47
2018-09-11T09:35:15.254Z,100456.02
2018-09-11T09:37:43.238Z,100447.70
2018-09-11T09:40:10.819Z,100441.00
2018-09-11T09:42:40.257Z,100460.00
2018-09-11T09:45:11.054Z,100459.09
2018-09-11T09:47:38.609Z,100450.84
2018-09-11T09:50:07.077Z,100456.81
2018-09-11T09:52:35.976Z,100440.47
2018-09-11T09:55:03.686Z,100444.64
2018-09-11T09:57:31.324Z,100443.48
2018-09-11T09:59:59.527Z,100452.48
2018-09-11T10:02:28.283Z,100442.70
2018-09-11T10:04:56.953Z,100454.81
2018-09-11T10:07:25.237Z,100438.77
2018-09-11T10:09:53.685Z,100457.36
2018-09-11T10:12:22.893Z,100458.39
2018-09-11T10:14:51.004Z,100444.48
2018-09-11T10:17:21.313Z,100436.36
2018-09-11T10:19:48.837Z,100439.55
2018-09-11T10:22:17.395Z,100445.02
2018-09-11T10:24:45.237Z,100435.83
2018-09-11T10:27:13.796Z,100449.33
2018-09-11T10:29:44.039Z,100446.72
2018-09-11T10:32:11.596Z,100442.58
2018-09-11T10:34:39.820Z,100433.41
2018-09-11T10:37:08.749Z,100432.31
2018-09-11T10:39:37.161Z,100414.27
2018-09-11T10:42:04.739Z,100416.06
2018-09-11T10:44:36.747Z,100425.22
2018-09-11T10:47:05.502Z,100423.33
2018-09-11T10:49:33.097Z,100427.83
2018-09-11T10:52:01.747Z,100422.03
2018-09-11T10:54:30.043Z,100418.91
2018-09-11T10:56:58.469Z,100415.94
2018-09-11T10:59:26.465Z,100428.70
2018-09-11T11:01:54.055Z,100420.42
2018-09-11T11:04:22.891Z,100424.42
2018-09-11T11:06:51.344Z,100421.89
2018-09-11T11:09:18.946Z,100415.80
2018-09-11T11:11:46.526Z,100408.50
2018-09-11T11:14:15.428Z,100408.80
2018-09-11T11:16:43.828Z,100417.27
2018-09-11T11:19:11.503Z,100412.93
2018-09-11T11:21:39.532Z,100412.45
2018-09-11T11:24:07.082Z,100421.39
2018-09-11T11:26:35.775Z,100414.33
2018-09-11T11:29:04.690Z,100414.38
2018-09-11T11:31:32.459Z,100411.14
2018-09-11T11:34:00.478Z,100410.77
2018-09-11T11:36:32.020Z,100405.25
2018-09-11T11:38:59.578Z,100419.70
2018-09-11T11:41:28.159Z,100416.44
2018-09-11T11:43:55.854Z,100414.97
2018-09-11T11:46:23.429Z,100408.23
2018-09-11T11:48:51.386Z,100409.75
2018-09-11T11:51:19.783Z,100424.20
2018-09-11T11:53:47.415Z,100413.03
2018-09-11T11:56:18.548Z,100419.08
2018-09-11T11:58:46.085Z,100431.62
2018-09-11T12:01:16.480Z,100409.70
2018-09-11T12:03:46.983Z,100409.42
2018-09-11T12:06:15.315Z,100411.00
2018-09-11T12:08:42.910Z,100409.75
2018-09-11T12:11:10.466Z,100399.81
2018-09-11T12:13:39.673Z,100400.95
2018-09-11T12:16:08.507Z,100395.08
2018-09-11T12:18:36.083Z,100397.06
2018-09-11T12:21:03.912Z,100392.67
2018-09-11T12:23:32.731Z,100394.19
2018-09-11T12:26:00.429Z,100397.09
2018-09-11T12:28:29.830Z,100395.91
2018-09-11T12:30:57.767Z,100396.20
2018-09-11T12:33:25.589Z,100391.95
2018-09-11T12:35:56.602Z,100390.41
2018-09-11T12:38:24.593Z,100373.57
2018-09-11T12:40:52.141Z,100387.77
2018-09-11T12:43:19.707Z,100383.16
2018-09-11T12:45:48.332Z,100383.34
2018-09-11T12:48:20.620Z,100379.77
2018-09-11T12:50:49.075Z,100385.65
2018-09-11T12:53:17.220Z,100376.70
2018-09-11T12:55:45.379Z,100381.55
2018-09-11T12:58:14.092Z,100378.83
2018-09-11T13:00:41.734Z,100385.44
2018-09-11T13:03:10.297Z,100387.53
2018-09-11T13:05:38.298Z,100389.37
2018-09-11T13:08:11.511Z,100375.41
2018-09-11T13:10:43.674Z,100375.11
2018-09-11T13:13:11.696Z,100377.98
2018-09-11T13:15:39.518Z,100374.51
2018-09-11T13:18:07.082Z,100375.92
2018-09-11T13:20:36.675Z,100383.08
2018-09-11T13:23:05.077Z,100377.69
2018-09-11T13:25:33.907Z,100371.08
2018-09-11T13:28:02.680Z,100380.58
2018-09-11T13:30:31.811Z,100375.09
2018-09-11T13:32:59.375Z,100373.36
2018-09-11T13:35:27.725Z,100371.27
2018-09-11T13:37:55.297Z,100375.11
2018-09-11T13:40:22.888Z,100365.38
2018-09-11T13:42:51.019Z,100368.51
2018-09-11T13:45:18.599Z,100369.30
2018-09-11T13:47:46.370Z,100362.84
2018-09-11T13:50:14.924Z,100368.84
2018-09-11T13:52:44.554Z,100361.81
2018-09-11T13:55:12.934Z,100351.23
2018-09-11T13:57:44.645Z,100354.94
2018-09-11T14:00:14.242Z,100361.97
2018-09-11T14:02:43.887Z,100352.59
2018-09-11T14:05:11.809Z,100348.61
2018-09-11T14:07:40.338Z,100348.89
2018-09-11T14:10:08.461Z,100343.05
2018-09-11T14:12:38.263Z,100342.19
2018-09-11T14:15:05.945Z,100326.19
2018-09-11T14:17:34.831Z,100332.52
2018-09-11T14:20:02.426Z,100336.38
2018-09-11T14:22:29.936Z,100334.98
2018-09-11T14:24:57.901Z,100331.86
2018-09-11T14:27:25.511Z,100335.56
2018-09-11T14:29:54.863Z,100329.50
2018-09-11T14:32:23.834Z,100336.83
2018-09-11T14:34:51.455Z,100335.67
2018-09-11T14:37:20.196Z,100329.80
2018-09-11T14:39:49.849Z,100328.95
2018-09-11T14:42:22.256Z,100333.44
2018-09-11T14:44:52.704Z,100324.06
2018-09-11T14:47:21.517Z,100324.66
2018-09-11T14:49:53.715Z,100326.58
2018-09-11T14:52:23.303Z,100320.33
2018-09-11T14:54:52.284Z,100327.96
2018-09-11T14:57:19.931Z,100334.52
2018-09-11T14:59:47.596Z,100323.73
2018-09-11T15:05:04.791Z,100326.06
2018-09-11T15:07:32.919Z,100327.12
2018-09-11T15:10:01.637Z,100326.42
2018-09-11T15:12:32.824Z,100325.11
2018-09-11T15:15:01.509Z,100316.27
2018-09-11T15:17:29.890Z,100322.48
2018-09-11T15:19:58.303Z,100324.33
2018-09-11T15:22:29.107Z,100323.55
2018-09-11T15:24:56.629Z,100313.20
2018-09-11T15:27:25.470Z,100319.00
2018-09-11T15:29:55.987Z,100315.55
2018-09-11T15:32:24.222Z,100310.97
2018-09-11T15:34:52.758Z,100300.16
2018-09-11T15:37:20.762Z,100304.14
2018-09-11T15:39:48.382Z,100300.20
2018-09-11T15:42:16.555Z,100297.33
2018-09-11T15:44:44.481Z,100301.15
2018-09-11T15:47:12.804Z,100302.22
2018-09-11T15:49:40.408Z,100298.80
2018-09-11T15:52:08.495Z,100290.89
2018-09-11T15:54:37.343Z,100296.22
2018-09-11T15:57:11.212Z,100292.91
2018-09-11T15:59:41.423Z,100289.88
2018-09-11T16:02:10.154Z,100294.25
2018-09-11T16:04:38.918Z,100292.17
2018-09-11T16:07:09.334Z,100288.73
2018-09-11T16:09:36.950Z,100284.68
2018-09-11T16:12:04.503Z,100284.79
2018-09-11T16:14:32.459Z,100285.06
2018-09-11T16:17:06.176Z,100287.66
2018-09-11T16:19:35.369Z,100287.17
2018-09-11T16:22:05.435Z,100279.91
2018-09-11T16:24:33.085Z,100283.47
2018-09-11T16:27:01.262Z,100275.88
2018-09-11T16:29:30.493Z,100287.47
2018-09-11T16:31:58.634Z,100278.36
2018-09-11T16:34:26.175Z,100277.65
2018-09-11T16:36:59.256Z,100269.39
2018-09-11T16:39:30.284Z,100270.45
2018-09-11T16:42:01.948Z,100269.62
2018-09-11T16:44:36.275Z,100275.42
2018-09-11T16:47:08.510Z,100268.94
2018-09-11T16:49:36.857Z,100271.25
2018-09-11T16:52:08.500Z,100262.84
2018-09-11T16:54:39.738Z,100268.75
2018-09-11T16:57:08.264Z,100266.11
2018-09-11T16:59:37.947Z,100263.41
2018-09-11T17:02:07.651Z,100269.16
2018-09-11T17:04:37.595Z,100264.34
2018-09-11T17:07:07.454Z,100269.90
2018-09-11T17:09:35.650Z,100269.38
2018-09-11T17:12:03.850Z,100264.23
2018-09-11T17:14:32.595Z,100264.77
2018-09-11T17:17:01.511Z,100262.56
2018-09-11T17:19:29.150Z,100267.80
2018-09-11T17:21:57.635Z,100265.38
2018-09-11T17:24:26.556Z,100263.48
2018-09-11T17:26:55.329Z,100267.89
2018-09-11T17:29:25.877Z,100273.20
2018-09-11T17:31:54.759Z,100275.81
2018-09-11T17:34:24.652Z,100276.02
2018-09-11T17:37:00.565Z,100280.06
2018-09-11T17:39:29.366Z,100284.58
2018-09-11T17:41:58.527Z,100280.33
2018-09-11T17:44:29.225Z,100282.41
2018-09-11T17:46:56.808Z,100287.73
2018-09-11T17:49:25.527Z,100292.34
2018-09-11T17:51:58.655Z,100288.31
2018-09-11T17:54:26.475Z,100290.06
2018-09-11T17:56:55.331Z,100295.01
2018-09-11T17:59:24.520Z,100297.39
2018-09-11T18:01:54.365Z,100302.77
2018-09-11T18:04:22.912Z,100306.81
2018-09-11T18:06:50.561Z,100310.33
2018-09-11T18:09:18.501Z,100313.77
2018-09-11T18:11:46.309Z,100315.20
2018-09-11T18:14:15.277Z,100315.98
2018-09-11T18:16:45.215Z,100316.95
2018-09-11T18:19:13.365Z,100319.68
2018-09-11T18:21:43.040Z,100320.23
2018-09-11T18:24:12.254Z,100327.20
2018-09-11T18:26:41.513Z,100330.14
2018-09-11T18:29:09.778Z,100333.48
2018-09-11T18:31:39.630Z,100331.69
2018-09-11T18:34:08.719Z,100338.60
2018-09-11T18:36:36.388Z,100341.76
2018-09-11T18:41:46.148Z,100339.23
2018-09-11T18:44:15.726Z,100338.80
2018-09-11T18:46:43.407Z,100342.81
2018-09-11T18:49:11.030Z,100342.73
2018-09-11T18:51:39.385Z,100341.59
2018-09-11T18:54:06.917Z,100345.20
2018-09-11T18:56:34.521Z,100347.34
2018-09-11T18:59:02.487Z,100347.88
2018-09-11T19:01:30.471Z,100348.61
2018-09-11T19:03:58.050Z,100353.75
2018-09-11T19:06:26.088Z,100352.48
2018-09-11T19:08:53.800Z,100356.59
2018-09-11T19:11:22.518Z,100351.22
2018-09-11T19:13:51.060Z,100358.74
2018-09-11T19:16:20.348Z,100361.16
2018-09-11T19:18:53.068Z,100357.00
2018-09-11T19:21:20.598Z,100357.70
2018-09-11T19:23:49.414Z,100359.23
2018-09-11T19:26:20.346Z,100360.27
2018-09-11T19:28:49.644Z,100359.97
2018-09-11T19:31:18.833Z,100360.83
2018-09-11T19:33:47.388Z,100356.60
2018-09-11T19:36:15.262Z,100357.63
2018-09-11T19:38:42.839Z,100348.70
2018-09-11T19:41:11.767Z,100349.05
2018-09-11T19:43:39.322Z,100350.08
2018-09-11T19:46:09.220Z,100347.36
2018-09-11T19:48:39.097Z,100343.83
2018-09-11T19:51:07.268Z,100351.48
2018-09-11T19:53:36.983Z,100344.05
2018-09-11T19:56:06.146Z,100338.48
2018-09-11T19:58:34.695Z,100334.41
2018-09-11T20:01:07.072Z,100335.62
2018-09-11T20:03:35.690Z,100340.39
2018-09-11T20:06:04.198Z,100338.70
2018-09-11T20:08:31.709Z,100349.06
2018-09-11T20:10:59.535Z,100338.23
2018-09-11T20:13:27.035Z,100345.71
2018-09-11T20:15:54.546Z,100345.77
2018-09-11T20:18:23.850Z,100345.78
2018-09-11T20:20:52.249Z,100339.38
2018-09-11T20:23:20.385Z,100342.27
2018-09-11T20:25:49.934Z,100343.13
2018-09-11T20:28:17.465Z,100347.31
2018-09-11T20:30:46.465Z,100345.77
2018-09-11T20:33:14.686Z,100337.41
2018-09-11T20:35:44.878Z,100342.94
2018-09-11T20:38:13.458Z,100343.09
2018-09-11T20:40:41.630Z,100342.24
2018-09-11T20:43:10.503Z,100341.69
2018-09-11T20:45:38.086Z,100344.23
2018-09-11T20:48:08.842Z,100335.06
2018-09-11T20:50:38.124Z,100336.57
2018-09-11T20:53:06.443Z,100338.41
2018-09-11T20:55:34.449Z,100338.17
2018-09-11T20:58:03.619Z,100333.38
2018-09-11T21:00:37.382Z,100331.46
2018-09-11T21:03:06.789Z,100328.90
2018-09-11T21:05:34.348Z,100327.54
2018-09-11T21:10:30.059Z,100324.44
2018-09-11T21:12:57.598Z,100326.74
2018-09-11T21:15:26.010Z,100320.94
2018-09-11T21:17:53.949Z,100327.92
2018-09-11T21:20:26.470Z,100332.02
2018-09-11T21:22:57.356Z,100333.77
2018-09-11T21:25:28.493Z,100327.16
2018-09-11T21:27:56.096Z,100330.73
2018-09-11T21:30:24.136Z,100325.97
2018-09-11T21:32:54.337Z,100328.90
2018-09-11T21:35:21.838Z,100325.39
2018-09-11T21:37:49.369Z,100329.95
2018-09-11T21:40:18.125Z,100328.63
2018-09-11T21:42:45.649Z,100334.61
2018-09-11T21:45:15.118Z,100330.06
2018-09-11T21:47:46.744Z,100330.94
2018-09-11T21:50:15.880Z,100332.85
2018-09-11T21:52:43.414Z,100333.06
2018-09-11T21:55:11.393Z,100332.05
2018-09-11T21:57:39.729Z,100335.79
2018-09-11T22:00:08.055Z,100341.03
2018-09-11T22:02:36.034Z,100337.16
2018-09-11T22:05:03.533Z,100346.17
2018-09-11T22:07:33.277Z,100344.99
2018-09-11T22:10:01.158Z,100336.70
2018-09-11T22:12:29.288Z,100346.74
2018-09-11T22:14:56.787Z,100346.09
2018-09-11T22:17:25.573Z,100348.11
2018-09-11T22:19:54.097Z,100339.66
2018-09-11T22:22:21.610Z,100338.78
2018-09-11T22:24:49.517Z,100342.67
2018-09-11T22:27:17.063Z,100345.39
2018-09-11T22:29:44.587Z,100340.67
2018-09-11T22:32:12.122Z,100348.32
2018-09-11T22:34:40.297Z,100345.83
2018-09-11T22:37:08.771Z,100347.91
2018-09-11T22:39:38.189Z,100350.30
2018-09-11T22:42:06.568Z,100348.30
2018-09-11T22:44:35.419Z,100348.83
2018-09-11T22:47:02.953Z,100344.95
2018-09-11T22:49:30.838Z,100350.24
2018-09-11T22:51:58.350Z,100343.66
2018-09-11T22:54:25.879Z,100341.48
2018-09-11T22:56:53.936Z,100338.65
2018-09-11T22:59:21.425Z,100341.00
2018-09-11T23:01:48.958Z,100337.63
2018-09-11T23:04:17.461Z,100344.08
2018-09-11T23:06:45.365Z,100345.97
2018-09-11T23:09:13.110Z,100344.98
2018-09-11T23:11:40.631Z,100343.77
2018-09-11T23:14:08.395Z,100339.05
2018-09-11T23:16:36.204Z,100347.83
2018-09-11T23:19:04.320Z,100340.90
2018-09-11T23:21:31.831Z,100338.06
2018-09-11T23:23:59.348Z,100341.44
2018-09-11T23:26:27.244Z,100342.17
2018-09-11T23:28:55.567Z,100340.16
2018-09-11T23:31:23.106Z,100344.59
2018-09-11T23:33:50.682Z,100341.59
2018-09-11T23:36:18.542Z,100334.86
2018-09-11T23:38:47.072Z,100333.84
2018-09-11T23:41:14.666Z,100335.69
2018-09-11T23:43:42.638Z,100334.83
2018-09-11T23:46:10.147Z,100331.09
2018-09-11T23:48:37.661Z,100337.86
2018-09-11T23:51:05.733Z,100334.13
2018-09-11T23:53:33.259Z,100336.18
2018-09-11T23:56:02.085Z,100338.89
2018-09-11T23:58:30.108Z,100336.18
